FDY65 PHNL-PHMK
Flight info
| Callsign | FDY65 |
|---|---|
| Flight time | 0h 23m |
| Altitude | 7000 |
| Route | MKK5 MKK |
| Aircraft | C208/L-SDFGR/C |
Departure
| Time | 2026-04-24 23:17 |
|---|---|
| Airport | Daniel K. Inouye International Airport (PHNL) |
Arrival
| Time | 2026-04-24 23:41 |
|---|---|
| Airport | Molokai Airport (PHMK) |
| Time | Latitude | Longitude | Altitude | Speed | Heading |
|---|---|---|---|---|---|
| 2026-04-24 23:03 | 21.33114 | -157.91079 | 23 ft | 0 kts | 233° |
| 2026-04-24 23:11 | 21.33090 | -157.91084 | 23 ft | 10 kts | 124° |
| 2026-04-24 23:11 | 21.33064 | -157.91019 | 23 ft | 8 kts | 146° |
| 2026-04-24 23:11 | 21.33055 | -157.91014 | 23 ft | 4 kts | 166° |
| 2026-04-24 23:11 | 21.32978 | -157.90988 | 22 ft | 19 kts | 178° |
| 2026-04-24 23:12 | 21.32866 | -157.91117 | 22 ft | 28 kts | 229° |
| 2026-04-24 23:12 | 21.32767 | -157.91260 | 22 ft | 20 kts | 235° |
| 2026-04-24 23:12 | 21.32687 | -157.91418 | 22 ft | 28 kts | 277° |
| 2026-04-24 23:12 | 21.32691 | -157.91590 | 24 ft | 15 kts | 268° |
| 2026-04-24 23:13 | 21.32695 | -157.91720 | 23 ft | 23 kts | 268° |
| 2026-04-24 23:13 | 21.32692 | -157.91918 | 23 ft | 28 kts | 271° |
| 2026-04-24 23:13 | 21.32638 | -157.92119 | 23 ft | 29 kts | 240° |
| 2026-04-24 23:13 | 21.32506 | -157.92233 | 23 ft | 27 kts | 154° |
| 2026-04-24 23:14 | 21.32331 | -157.92115 | 23 ft | 30 kts | 152° |
| 2026-04-24 23:14 | 21.32174 | -157.92058 | 23 ft | 21 kts | 237° |
| 2026-04-24 23:14 | 21.32073 | -157.92212 | 23 ft | 28 kts | 226° |
| 2026-04-24 23:14 | 21.31976 | -157.92347 | 24 ft | 19 kts | 234° |
| 2026-04-24 23:15 | 21.31955 | -157.92372 | 23 ft | 0 kts | 213° |
| 2026-04-24 23:15 | 21.31951 | -157.92375 | 24 ft | 5 kts | 212° |
| 2026-04-24 23:16 | 21.31882 | -157.92350 | 25 ft | 14 kts | 146° |
| 2026-04-24 23:16 | 21.31865 | -157.92281 | 23 ft | 7 kts | 39° |
| 2026-04-24 23:16 | 21.31936 | -157.92192 | 24 ft | 33 kts | 52° |
| 2026-04-24 23:16 | 21.32152 | -157.91884 | 33 ft | 65 kts | 49° |
| 2026-04-24 23:17 | 21.32436 | -157.91474 | 151 ft | 74 kts | 45° |
| 2026-04-24 23:17 | 21.32756 | -157.91025 | 377 ft | 74 kts | 44° |
| 2026-04-24 23:17 | 21.33069 | -157.90653 | 562 ft | 85 kts | 43° |
| 2026-04-24 23:17 | 21.33377 | -157.90085 | 738 ft | 96 kts | 77° |
| 2026-04-24 23:18 | 21.33180 | -157.89358 | 944 ft | 103 kts | 101° |
| 2026-04-24 23:18 | 21.32966 | -157.88671 | 1287 ft | 91 kts | 98° |
| 2026-04-24 23:18 | 21.32836 | -157.88037 | 1589 ft | 88 kts | 90° |
| 2026-04-24 23:18 | 21.32637 | -157.87389 | 1823 ft | 102 kts | 114° |
| 2026-04-24 23:19 | 21.32003 | -157.86924 | 2073 ft | 114 kts | 140° |
| 2026-04-24 23:19 | 21.31327 | -157.86469 | 2317 ft | 116 kts | 139° |
| 2026-04-24 23:19 | 21.30660 | -157.85965 | 2561 ft | 118 kts | 128° |
| 2026-04-24 23:19 | 21.30255 | -157.85242 | 2802 ft | 111 kts | 96° |
| 2026-04-24 23:20 | 21.30043 | -157.84439 | 3047 ft | 114 kts | 98° |
| 2026-04-24 23:20 | 21.29829 | -157.83611 | 3269 ft | 116 kts | 99° |
| 2026-04-24 23:20 | 21.29611 | -157.82766 | 3500 ft | 118 kts | 97° |
| 2026-04-24 23:20 | 21.29410 | -157.81907 | 3720 ft | 120 kts | 98° |
| 2026-04-24 23:21 | 21.29205 | -157.81049 | 3938 ft | 120 kts | 97° |
| 2026-04-24 23:21 | 21.28993 | -157.80163 | 4168 ft | 124 kts | 96° |
| 2026-04-24 23:21 | 21.28784 | -157.79266 | 4393 ft | 126 kts | 99° |
| 2026-04-24 23:21 | 21.28564 | -157.78350 | 4624 ft | 127 kts | 98° |
| 2026-04-24 23:22 | 21.28345 | -157.77428 | 4811 ft | 126 kts | 98° |
| 2026-04-24 23:22 | 21.28134 | -157.76527 | 4970 ft | 123 kts | 97° |
| 2026-04-24 23:22 | 21.27924 | -157.75641 | 5143 ft | 122 kts | 96° |
| 2026-04-24 23:22 | 21.27717 | -157.74762 | 5304 ft | 122 kts | 98° |
| 2026-04-24 23:23 | 21.27503 | -157.73879 | 5471 ft | 123 kts | 99° |
| 2026-04-24 23:23 | 21.27287 | -157.72994 | 5650 ft | 122 kts | 96° |
| 2026-04-24 23:23 | 21.27081 | -157.72114 | 5827 ft | 122 kts | 97° |
| 2026-04-24 23:23 | 21.26873 | -157.71236 | 6001 ft | 121 kts | 96° |
| 2026-04-24 23:24 | 21.26665 | -157.70365 | 6171 ft | 119 kts | 98° |
| 2026-04-24 23:24 | 21.26459 | -157.69501 | 6336 ft | 121 kts | 99° |
| 2026-04-24 23:24 | 21.26255 | -157.68626 | 6511 ft | 121 kts | 96° |
| 2026-04-24 23:24 | 21.26052 | -157.67749 | 6667 ft | 122 kts | 97° |
| 2026-04-24 23:25 | 21.25839 | -157.66865 | 6824 ft | 123 kts | 99° |
| 2026-04-24 23:25 | 21.25622 | -157.65974 | 6989 ft | 124 kts | 99° |
| 2026-04-24 23:25 | 21.25397 | -157.65051 | 7027 ft | 134 kts | 100° |
| 2026-04-24 23:25 | 21.25164 | -157.64054 | 7037 ft | 142 kts | 96° |
| 2026-04-24 23:26 | 21.24921 | -157.63010 | 7021 ft | 147 kts | 97° |
| 2026-04-24 23:26 | 21.24664 | -157.61940 | 7020 ft | 150 kts | 101° |
| 2026-04-24 23:26 | 21.24404 | -157.60844 | 7015 ft | 153 kts | 97° |
| 2026-04-24 23:26 | 21.24138 | -157.59736 | 7015 ft | 154 kts | 100° |
| 2026-04-24 23:27 | 21.23869 | -157.58617 | 7021 ft | 156 kts | 100° |
| 2026-04-24 23:27 | 21.23600 | -157.57489 | 7019 ft | 157 kts | 99° |
| 2026-04-24 23:27 | 21.23314 | -157.56356 | 7019 ft | 158 kts | 99° |
| 2026-04-24 23:27 | 21.23016 | -157.55222 | 7014 ft | 158 kts | 100° |
| 2026-04-24 23:28 | 21.22716 | -157.54096 | 7029 ft | 156 kts | 102° |
| 2026-04-24 23:28 | 21.22417 | -157.52974 | 7021 ft | 157 kts | 100° |
| 2026-04-24 23:28 | 21.22120 | -157.51853 | 7020 ft | 156 kts | 100° |
| 2026-04-24 23:28 | 21.21818 | -157.50706 | 6864 ft | 164 kts | 102° |
| 2026-04-24 23:29 | 21.21508 | -157.49541 | 6610 ft | 155 kts | 103° |
| 2026-04-24 23:29 | 21.21222 | -157.48505 | 6299 ft | 137 kts | 102° |
| 2026-04-24 23:29 | 21.20966 | -157.47551 | 5974 ft | 129 kts | 99° |
| 2026-04-24 23:29 | 21.20728 | -157.46646 | 5650 ft | 125 kts | 100° |
| 2026-04-24 23:30 | 21.20495 | -157.45736 | 5345 ft | 133 kts | 98° |
| 2026-04-24 23:30 | 21.20239 | -157.44752 | 5030 ft | 140 kts | 100° |
| 2026-04-24 23:30 | 21.19969 | -157.43744 | 4702 ft | 142 kts | 101° |
| 2026-04-24 23:30 | 21.19701 | -157.42727 | 4368 ft | 142 kts | 102° |
| 2026-04-24 23:31 | 21.19344 | -157.41734 | 4023 ft | 147 kts | 119° |
| 2026-04-24 23:31 | 21.18602 | -157.40941 | 3616 ft | 153 kts | 133° |
| 2026-04-24 23:31 | 21.17817 | -157.40170 | 3213 ft | 154 kts | 130° |
| 2026-04-24 23:31 | 21.17048 | -157.39374 | 2913 ft | 149 kts | 130° |
| 2026-04-24 23:32 | 21.16347 | -157.38646 | 2897 ft | 133 kts | 128° |
| 2026-04-24 23:32 | 21.15717 | -157.37982 | 2896 ft | 122 kts | 127° |
| 2026-04-24 23:32 | 21.15130 | -157.37362 | 2897 ft | 116 kts | 128° |
| 2026-04-24 23:32 | 21.14564 | -157.36768 | 2897 ft | 112 kts | 125° |
| 2026-04-24 23:33 | 21.14017 | -157.36191 | 2899 ft | 109 kts | 127° |
| 2026-04-24 23:33 | 21.13656 | -157.35806 | 2908 ft | 115 kts | 126° |
| 2026-04-24 23:33 | 21.12826 | -157.34917 | 2922 ft | 136 kts | 128° |
| 2026-04-24 23:33 | 21.12375 | -157.34037 | 2910 ft | 137 kts | 93° |
| 2026-04-24 23:34 | 21.12467 | -157.33011 | 2883 ft | 141 kts | 77° |
| 2026-04-24 23:34 | 21.12600 | -157.31955 | 2873 ft | 145 kts | 80° |
| 2026-04-24 23:34 | 21.12696 | -157.30870 | 2860 ft | 148 kts | 81° |
| 2026-04-24 23:34 | 21.12789 | -157.29762 | 2846 ft | 150 kts | 81° |
| 2026-04-24 23:35 | 21.12880 | -157.28670 | 2821 ft | 143 kts | 80° |
| 2026-04-24 23:35 | 21.12965 | -157.27617 | 2813 ft | 141 kts | 81° |
| 2026-04-24 23:35 | 21.13042 | -157.26578 | 2798 ft | 139 kts | 81° |
| 2026-04-24 23:35 | 21.13133 | -157.25570 | 2804 ft | 136 kts | 81° |
| 2026-04-24 23:36 | 21.13206 | -157.24596 | 2819 ft | 131 kts | 81° |
| 2026-04-24 23:36 | 21.13275 | -157.23614 | 2806 ft | 131 kts | 81° |
| 2026-04-24 23:36 | 21.13355 | -157.22656 | 2800 ft | 127 kts | 81° |
| 2026-04-24 23:36 | 21.13429 | -157.21732 | 2810 ft | 123 kts | 81° |
| 2026-04-24 23:37 | 21.13519 | -157.20786 | 2810 ft | 134 kts | 82° |
| 2026-04-24 23:37 | 21.13586 | -157.19797 | 2808 ft | 132 kts | 83° |
| 2026-04-24 23:37 | 21.13739 | -157.17842 | 2812 ft | 132 kts | 81° |
| 2026-04-24 23:38 | 21.13825 | -157.16860 | 2813 ft | 133 kts | 81° |
| 2026-04-24 23:38 | 21.14013 | -157.15874 | 2693 ft | 136 kts | 74° |
| 2026-04-24 23:38 | 21.14178 | -157.14892 | 2580 ft | 127 kts | 80° |
| 2026-04-24 23:38 | 21.14091 | -157.14008 | 2531 ft | 115 kts | 99° |
| 2026-04-24 23:39 | 21.13885 | -157.13276 | 2271 ft | 92 kts | 121° |
| 2026-04-24 23:39 | 21.13746 | -157.12642 | 1948 ft | 85 kts | 79° |
| 2026-04-24 23:39 | 21.13897 | -157.12084 | 1640 ft | 74 kts | 86° |
| 2026-04-24 23:39 | 21.14122 | -157.11595 | 1372 ft | 83 kts | 64° |
| 2026-04-24 23:40 | 21.14458 | -157.11035 | 891 ft | 86 kts | 70° |
| 2026-04-24 23:40 | 21.14693 | -157.10591 | 649 ft | 54 kts | 58° |
| 2026-04-24 23:40 | 21.14875 | -157.10251 | 524 ft | 54 kts | 56° |
| 2026-04-24 23:40 | 21.15070 | -157.09908 | 468 ft | 53 kts | 54° |
| 2026-04-24 23:41 | 21.15212 | -157.09646 | 460 ft | 25 kts | 54° |
| 2026-04-24 23:41 | 21.15340 | -157.09498 | 462 ft | 28 kts | 47° |
| 2026-04-24 23:41 | 21.15435 | -157.09372 | 462 ft | 17 kts | 63° |
| 2026-04-24 23:41 | 21.15489 | -157.09275 | 462 ft | 16 kts | 60° |
| 2026-04-24 23:42 | 21.15545 | -157.09235 | 462 ft | 10 kts | 287° |
| 2026-04-24 23:42 | 21.15507 | -157.09301 | 462 ft | 17 kts | 315° |
| 2026-04-24 23:42 | 21.15534 | -157.09290 | 462 ft | 4 kts | 61° |
| 2026-04-24 23:42 | 21.15538 | -157.09282 | 462 ft | 0 kts | 59° |